OOSAOIZC

Guest
Details From OOSA - Salalah
To OIZC - Chah Bahar
Flight Number -
Tags Generated
Created
Modified
Stats Distance 619 nm / 1,147 km
Max Altitude 0 ft / 0 m
Waypoints 4
Social Downloads 0
Likes 0
Share VATSIM

Download

Looking for another format? Having issues loading an existing format? Contact us
Advertisement - Login to hide

Notes

Generated

Route

OOSA OL CBH OIZC

ID Type Via Altitude Latitude Longitude Leg Dist Tot Dist Heading (true) Name
O OOSA APT - 0 ft / 0 m 17.04026˚ 54.10133˚ - 0 nm - SALALAH
OL NDB - 0 ft / 0 m 21.30000˚ 57.08333˚ 306 nm 306 nm 33° / 34° QARN ALAM NDB
CBH VOR - 0 ft / 0 m 25.44539˚ 60.42131˚ 309 nm 616 nm 36° / 37° CHAH BAHAR VORTAC
O OIZC APT - 0 ft / 0 m 25.44153˚ 60.36515˚ 3 nm 619 nm 266° / 266° -

Altitude Profile

Advertisement - Login to hide

Weather


0- 5 10 15 20 25 30 35+ Temperature / ° C

Clouds and Precipitation
Forecast for 2017-12-13 00:00 UTC. Updated 29 minutes ago

Ground ~20,000 ft ~40,000 ft Winds

OOSA

Details ICAO OOSA (SLL)
Name SALALAH
Region Oman
Timezone Asia/Muscat (UTC+4.0)
Stats Elevation 73 ft / 22 m (AMSL)
Location 17.036616° 54.096616°
Runways 2
Magnetic Variation 0.881° E

METAR

OOSA 122050Z 36005KT CAVOK 22/M17 Q1018 NOSIG

Decode

TAF

TAF OOSA 121740Z 1218/1400 35010KT CAVOK BECMG 1304/1306 35020KT BECMG 1315/1317 01010KT

Decode

Departure Runways

ID Width Length Bearing (true) Bearing (mag) Surface Threshold Offset Overrun Length
07 148 ft / 45 m 10,960 ft / 3,341 m 70.68° 69.80° Asphalt 0 ft / 0 m 197 ft / 60 m
17 59 ft / 18 m 4,217 ft / 1,285 m 174.11° 173.23° Dirt 0 ft / 0 m 5,016 ft / 1,529 m
25 148 ft / 45 m 10,960 ft / 3,341 m 250.69° 249.81° Asphalt 0 ft / 0 m 197 ft / 60 m
35 59 ft / 18 m 4,217 ft / 1,285 m 354.11° 353.23° Dirt 0 ft / 0 m 4,392 ft / 1,339 m

OIZC

Details ICAO OIZC (ZBR)
Name CHAH BAHAR
Region Iran
Timezone Asia/Tehran (UTC+3.5)
Stats Elevation 43 ft / 13 m (AMSL)
Location 25.443349° 60.382115°
Runways 2
Magnetic Variation 1.618° E

METAR

Not found

TAF

TAF OIZC 121730Z 1218/1324 33003MPS 7000 NSC TEMPO 1222/1301 06006MPS

Decode

Destination Runways

ID Width Length Bearing (true) Bearing (mag) Surface Threshold Offset Overrun Length
09L 150 ft / 46 m 12,496 ft / 3,809 m 90.91° 89.29° Asphalt 0 ft / 0 m 1,181 ft / 360 m
09R 150 ft / 46 m 9,829 ft / 2,996 m 90.93° 89.31° Asphalt 0 ft / 0 m 1,181 ft / 360 m
27L 150 ft / 46 m 9,829 ft / 2,996 m 270.94° 269.32° Asphalt 0 ft / 0 m 1,181 ft / 360 m
27R 150 ft / 46 m 12,496 ft / 3,809 m 270.93° 269.31° Asphalt 0 ft / 0 m 1,181 ft / 360 m